createdAt,value
2019-03-28T00:00:33.213Z,27.40
2019-03-28T00:03:02.847Z,29.40
2019-03-28T00:05:32.203Z,30.90
2019-03-28T00:08:02.221Z,33.30
2019-03-28T00:10:31.621Z,29.40
2019-03-28T00:13:01.267Z,30.37
2019-03-28T00:15:30.828Z,29.30
2019-03-28T00:18:00.254Z,31.45
2019-03-28T00:20:29.450Z,30.25
2019-03-28T00:23:16.494Z,29.72
2019-03-28T00:25:46.118Z,30.72
2019-03-28T00:28:15.352Z,33.83
2019-03-28T00:30:45.071Z,34.58
2019-03-28T00:33:14.173Z,32.83
2019-03-28T00:35:43.305Z,27.32
2019-03-28T00:38:12.766Z,30.68
2019-03-28T00:40:42.416Z,29.85
2019-03-28T00:43:11.661Z,34.88
2019-03-28T00:45:44.422Z,34.85
2019-03-28T00:48:12.591Z,27.82
2019-03-28T00:50:41.855Z,35.05
2019-03-28T00:53:11.309Z,33.35
2019-03-28T00:55:40.824Z,29.12
2019-03-28T00:58:10.225Z,28.55
2019-03-28T01:00:40.172Z,31.50
2019-03-28T01:03:09.742Z,24.12
2019-03-28T01:05:39.326Z,27.00
2019-03-28T01:08:08.812Z,27.95
2019-03-28T01:10:38.112Z,28.87
2019-03-28T01:13:07.341Z,30.32
2019-03-28T01:15:36.753Z,29.70
2019-03-28T01:18:06.034Z,28.87
2019-03-28T01:20:35.340Z,26.75
2019-03-28T01:23:04.583Z,29.18
2019-03-28T01:25:34.043Z,27.70
2019-03-28T01:28:03.456Z,33.38
2019-03-28T01:30:32.617Z,27.22
2019-03-28T01:33:02.190Z,30.40
2019-03-28T01:35:31.488Z,25.52
2019-03-28T01:38:00.921Z,27.30
2019-03-28T01:40:30.059Z,31.50
2019-03-28T01:42:59.574Z,30.65
2019-03-28T01:45:28.969Z,31.27
2019-03-28T01:47:58.358Z,26.12
2019-03-28T01:50:27.783Z,29.65
2019-03-28T01:52:57.225Z,32.85
2019-03-28T01:55:26.647Z,29.72
2019-03-28T01:57:55.776Z,30.68
2019-03-28T02:00:25.232Z,31.42
2019-03-28T02:02:54.941Z,33.13
2019-03-28T02:05:24.271Z,30.12
2019-03-28T02:07:53.708Z,28.12
2019-03-28T02:10:23.157Z,25.55
2019-03-28T02:12:52.452Z,32.05
2019-03-28T02:15:21.884Z,37.15
2019-03-28T02:17:51.552Z,31.50
2019-03-28T02:20:21.121Z,27.75
2019-03-28T02:22:50.788Z,30.80
2019-03-28T02:25:20.343Z,20.40
2019-03-28T02:27:49.697Z,28.98
2019-03-28T02:30:20.123Z,28.73
2019-03-28T02:32:49.720Z,35.20
2019-03-28T02:35:19.170Z,29.92
2019-03-28T02:37:48.955Z,31.73
2019-03-28T02:40:18.369Z,27.80
2019-03-28T02:42:47.658Z,29.87
2019-03-28T02:45:16.741Z,28.30
2019-03-28T02:47:46.184Z,31.33
2019-03-28T02:50:15.767Z,30.12
2019-03-28T02:52:45.473Z,34.60
2019-03-28T02:55:14.502Z,29.87
2019-03-28T02:57:44.071Z,30.12
2019-03-28T03:00:13.812Z,27.62
2019-03-28T03:02:43.322Z,31.60
2019-03-28T03:05:12.758Z,32.98
2019-03-28T03:07:42.536Z,30.27
2019-03-28T03:10:12.157Z,26.33
2019-03-28T03:12:41.737Z,33.70
2019-03-28T03:15:11.314Z,32.40
2019-03-28T03:17:41.538Z,30.48
2019-03-28T03:20:11.563Z,29.72
2019-03-28T03:22:40.914Z,32.73
2019-03-28T03:25:10.417Z,31.87
2019-03-28T03:27:56.395Z,33.05
2019-03-28T03:30:11.477Z,33.13
2019-03-28T03:32:40.551Z,36.15
2019-03-28T03:35:09.661Z,33.55
2019-03-28T03:37:38.671Z,38.00
2019-03-28T03:40:09.078Z,37.00
2019-03-28T03:42:37.876Z,30.10
2019-03-28T03:45:09.065Z,32.42
2019-03-28T03:47:38.819Z,31.95
2019-03-28T03:50:07.986Z,36.50
2019-03-28T03:52:37.008Z,33.15
2019-03-28T03:55:07.309Z,36.35
2019-03-28T03:57:36.510Z,34.60
2019-03-28T04:00:06.957Z,34.20
2019-03-28T04:02:36.673Z,35.15
2019-03-28T04:05:07.513Z,35.03
2019-03-28T04:07:36.368Z,34.90
2019-03-28T04:10:06.670Z,32.55
2019-03-28T04:12:35.740Z,35.88
2019-03-28T04:15:05.513Z,38.17
2019-03-28T04:17:34.638Z,41.23
2019-03-28T04:20:04.116Z,45.23
2019-03-28T04:22:32.905Z,43.70
2019-03-28T04:25:02.289Z,40.28
2019-03-28T04:27:31.279Z,40.55
2019-03-28T04:30:00.557Z,38.08
2019-03-28T04:32:29.988Z,38.55
2019-03-28T04:34:59.541Z,31.15
2019-03-28T04:37:28.906Z,39.88
2019-03-28T04:39:57.680Z,32.58
2019-03-28T04:42:26.714Z,34.85
2019-03-28T04:44:55.868Z,34.30
2019-03-28T04:47:24.948Z,39.08
2019-03-28T04:49:54.057Z,34.73
2019-03-28T04:52:23.286Z,38.80
2019-03-28T04:54:52.498Z,41.13
2019-03-28T04:57:21.344Z,45.55
2019-03-28T04:59:50.343Z,45.92
2019-03-28T05:02:19.621Z,42.65
2019-03-28T05:04:48.839Z,39.78
2019-03-28T05:07:17.934Z,47.98
2019-03-28T05:09:47.005Z,37.35
2019-03-28T05:12:15.941Z,42.70
2019-03-28T05:14:44.994Z,42.03
2019-03-28T05:17:14.407Z,40.45
2019-03-28T05:19:43.697Z,38.25
2019-03-28T05:22:12.435Z,49.27
2019-03-28T05:24:41.211Z,39.30
2019-03-28T05:27:10.542Z,38.17
2019-03-28T05:29:39.647Z,37.13
2019-03-28T05:32:09.088Z,38.13
2019-03-28T05:34:38.219Z,39.00
2019-03-28T05:37:07.329Z,43.10
2019-03-28T05:39:37.072Z,41.92
2019-03-28T05:42:06.167Z,37.42
2019-03-28T05:44:35.195Z,38.05
2019-03-28T05:47:04.454Z,34.67
2019-03-28T05:49:33.391Z,34.58
2019-03-28T05:52:02.675Z,26.55
2019-03-28T05:54:32.130Z,34.50
2019-03-28T05:57:01.237Z,29.55
2019-03-28T05:59:30.355Z,32.17
2019-03-28T06:01:59.249Z,28.60
2019-03-28T06:04:28.273Z,30.37
2019-03-28T06:06:57.225Z,38.28
2019-03-28T06:09:26.190Z,38.20
2019-03-28T06:11:55.559Z,39.88
2019-03-28T06:14:24.570Z,37.98
2019-03-28T06:16:53.896Z,34.70
2019-03-28T06:19:22.906Z,40.23
2019-03-28T06:21:51.936Z,29.70
2019-03-28T06:24:20.827Z,38.78
2019-03-28T06:26:50.134Z,31.27
2019-03-28T06:29:24.049Z,37.65
2019-03-28T06:31:55.309Z,28.77
2019-03-28T06:34:20.552Z,29.72
2019-03-28T06:36:49.647Z,29.10
2019-03-28T06:39:18.724Z,35.98
2019-03-28T06:41:48.617Z,29.37
2019-03-28T06:44:18.090Z,28.80
2019-03-28T06:46:47.471Z,30.30
2019-03-28T06:49:16.472Z,34.83
2019-03-28T06:51:45.709Z,36.55
2019-03-28T06:54:14.830Z,21.05
2019-03-28T06:56:44.034Z,30.77
2019-03-28T06:59:13.071Z,31.55
2019-03-28T07:01:42.209Z,31.27
2019-03-28T07:04:11.413Z,27.93
2019-03-28T07:06:40.658Z,27.35
2019-03-28T07:09:09.724Z,43.65
2019-03-28T07:11:38.695Z,31.00
2019-03-28T07:14:07.892Z,27.42
2019-03-28T07:16:37.251Z,21.57
2019-03-28T07:19:06.528Z,17.75
2019-03-28T07:21:35.506Z,22.10
2019-03-28T07:24:04.488Z,23.18
2019-03-28T07:26:33.407Z,15.78
2019-03-28T07:29:02.541Z,23.18
2019-03-28T07:31:31.627Z,18.67
2019-03-28T07:34:00.885Z,18.30
2019-03-28T07:36:29.964Z,18.57
2019-03-28T07:38:58.807Z,22.10
2019-03-28T07:41:27.913Z,16.93
2019-03-28T07:43:56.772Z,22.80
2019-03-28T07:46:26.031Z,22.35
2019-03-28T07:48:55.158Z,18.37
2019-03-28T07:51:24.007Z,12.13
2019-03-28T07:53:53.116Z,17.87
2019-03-28T07:56:23.270Z,19.20
2019-03-28T07:58:52.363Z,18.40
2019-03-28T08:01:21.209Z,17.62
2019-03-28T08:03:50.298Z,7.80
2019-03-28T08:06:20.560Z,13.55
2019-03-28T08:08:53.055Z,15.78
2019-03-28T08:11:22.199Z,12.20
2019-03-28T08:13:51.331Z,14.47
2019-03-28T08:16:20.863Z,10.63
2019-03-28T08:18:50.598Z,14.58
2019-03-28T08:21:19.393Z,10.95
2019-03-28T08:23:48.288Z,14.13
2019-03-28T08:26:17.507Z,12.35
2019-03-28T08:28:46.900Z,12.20
2019-03-28T08:31:15.875Z,13.22
2019-03-28T08:33:45.484Z,14.43
2019-03-28T08:36:14.827Z,10.28
2019-03-28T08:38:43.663Z,15.78
2019-03-28T08:41:12.447Z,5.33
2019-03-28T08:43:42.666Z,12.45
2019-03-28T08:46:12.123Z,5.80
2019-03-28T08:48:41.203Z,5.83
2019-03-28T08:51:10.416Z,7.10
2019-03-28T08:53:39.524Z,4.78
2019-03-28T08:56:08.588Z,4.95
2019-03-28T08:58:38.252Z,4.22
2019-03-28T09:01:08.413Z,5.75
2019-03-28T09:03:37.397Z,4.58
2019-03-28T09:06:06.340Z,4.05
2019-03-28T09:08:35.307Z,5.40
2019-03-28T09:11:04.698Z,5.53
2019-03-28T09:13:34.287Z,7.08
2019-03-28T09:16:03.064Z,4.10
2019-03-28T09:18:33.901Z,5.08
2019-03-28T09:21:03.046Z,4.95
2019-03-28T09:23:32.404Z,5.35
2019-03-28T09:26:04.205Z,4.37
2019-03-28T09:28:32.145Z,4.10
2019-03-28T09:31:01.878Z,3.05
2019-03-28T09:33:31.441Z,4.75
2019-03-28T09:36:00.747Z,5.60
2019-03-28T09:38:29.902Z,3.67
2019-03-28T09:40:58.795Z,6.25
2019-03-28T09:43:27.980Z,8.23
2019-03-28T09:46:00.272Z,5.58
2019-03-28T09:48:28.370Z,6.05
2019-03-28T09:50:57.712Z,6.45
2019-03-28T09:53:26.848Z,4.60
2019-03-28T09:55:55.886Z,9.18
2019-03-28T09:58:24.883Z,5.65
2019-03-28T10:01:02.588Z,5.60
2019-03-28T10:03:24.981Z,6.67
2019-03-28T10:05:54.154Z,8.73
2019-03-28T10:08:23.013Z,5.65
2019-03-28T10:10:52.073Z,6.85
2019-03-28T10:13:20.974Z,6.95
2019-03-28T10:15:49.675Z,6.70
2019-03-28T10:18:18.430Z,6.65
2019-03-28T10:20:47.499Z,4.17
2019-03-28T10:23:16.734Z,6.67
2019-03-28T10:25:45.952Z,8.30
2019-03-28T10:28:15.178Z,8.63
2019-03-28T10:30:45.373Z,5.53
2019-03-28T10:33:14.719Z,6.42
2019-03-28T10:35:43.940Z,6.12
2019-03-28T10:38:12.830Z,8.03
2019-03-28T10:40:41.842Z,6.75
2019-03-28T10:43:10.853Z,6.25
2019-03-28T10:45:39.963Z,4.67
2019-03-28T10:48:08.979Z,4.70
2019-03-28T10:50:45.325Z,6.20
2019-03-28T10:53:08.332Z,5.67
2019-03-28T10:55:37.391Z,4.58
2019-03-28T10:58:17.540Z,6.42
2019-03-28T11:00:37.552Z,5.65
2019-03-28T11:03:06.240Z,6.95
2019-03-28T11:05:35.220Z,5.30
2019-03-28T11:08:04.223Z,8.63
2019-03-28T11:10:33.214Z,6.50
2019-03-28T11:13:02.447Z,8.15
2019-03-28T11:15:31.470Z,7.12
2019-03-28T11:18:00.297Z,5.53
2019-03-28T11:20:29.408Z,6.67
2019-03-28T11:22:58.353Z,7.03
2019-03-28T11:25:27.565Z,9.33
2019-03-28T11:27:57.688Z,7.20
2019-03-28T11:30:26.800Z,6.42
2019-03-28T11:32:56.168Z,7.03
2019-03-28T11:35:25.351Z,6.50
2019-03-28T11:37:54.737Z,21.50
2019-03-28T11:40:24.613Z,9.25
2019-03-28T11:42:54.197Z,8.30
2019-03-28T11:45:23.332Z,28.47
2019-03-28T11:47:52.449Z,9.50
2019-03-28T11:50:21.709Z,6.97
2019-03-28T11:52:50.489Z,5.70
2019-03-28T11:55:19.888Z,9.08
2019-03-28T11:57:48.973Z,5.15
2019-03-28T12:00:19.742Z,6.12
2019-03-28T12:02:49.008Z,6.53
2019-03-28T12:05:18.096Z,10.13
2019-03-28T12:07:47.403Z,6.08
2019-03-28T12:10:16.429Z,5.80
2019-03-28T12:12:45.552Z,8.23
2019-03-28T12:15:15.014Z,5.83
2019-03-28T12:17:43.959Z,5.15
2019-03-28T12:20:13.145Z,4.92
2019-03-28T12:22:42.321Z,11.38
2019-03-28T12:25:11.881Z,7.37
2019-03-28T12:27:41.225Z,10.65
2019-03-28T12:30:16.525Z,10.15
2019-03-28T12:32:44.392Z,6.17
2019-03-28T12:35:13.399Z,5.83
2019-03-28T12:37:42.347Z,7.03
2019-03-28T12:40:11.774Z,6.92
2019-03-28T12:42:40.899Z,4.60
2019-03-28T12:45:10.352Z,4.10
2019-03-28T12:47:42.879Z,4.97
2019-03-28T12:50:11.069Z,6.30
2019-03-28T12:52:40.229Z,6.15
2019-03-28T12:55:10.653Z,8.33
2019-03-28T12:57:39.787Z,8.98
2019-03-28T13:00:10.516Z,7.50
2019-03-28T13:02:39.803Z,10.23
2019-03-28T13:05:10.607Z,6.20
2019-03-28T13:07:39.974Z,5.67
2019-03-28T13:10:09.862Z,7.15
2019-03-28T13:12:39.227Z,8.80
2019-03-28T13:15:08.210Z,8.80
2019-03-28T13:17:37.097Z,10.48
2019-03-28T13:20:07.516Z,6.97
2019-03-28T13:22:36.340Z,8.45
2019-03-28T13:25:06.628Z,9.25
2019-03-28T13:27:36.519Z,6.65
2019-03-28T13:30:07.383Z,10.93
2019-03-28T13:32:41.605Z,8.45
2019-03-28T13:35:08.416Z,9.13
2019-03-28T13:37:37.731Z,10.05
2019-03-28T13:40:07.132Z,9.35
2019-03-28T13:42:36.732Z,9.90
2019-03-28T13:45:06.796Z,9.65
2019-03-28T13:47:36.446Z,10.88
2019-03-28T13:50:07.422Z,13.58
2019-03-28T13:52:36.441Z,10.50
2019-03-28T13:55:06.303Z,8.73
2019-03-28T13:57:35.043Z,13.40
2019-03-28T14:00:05.390Z,9.75
2019-03-28T14:02:34.539Z,11.97
2019-03-28T14:05:03.518Z,8.90
2019-03-28T14:07:32.424Z,12.20
2019-03-28T14:10:01.194Z,9.53
2019-03-28T14:12:30.010Z,9.50
2019-03-28T14:15:00.522Z,11.05
2019-03-28T14:17:29.665Z,11.08
2019-03-28T14:19:58.742Z,13.00
2019-03-28T14:22:27.999Z,12.53
2019-03-28T14:24:57.001Z,11.57
2019-03-28T14:27:26.002Z,9.58
2019-03-28T14:29:55.627Z,10.88
2019-03-28T14:32:25.225Z,8.90
2019-03-28T14:34:54.078Z,10.20
2019-03-28T14:37:23.286Z,11.57
2019-03-28T14:39:52.836Z,11.53
2019-03-28T14:42:22.537Z,8.05
2019-03-28T14:44:51.950Z,10.72
2019-03-28T14:47:21.077Z,16.67
2019-03-28T14:49:50.322Z,10.95
2019-03-28T14:52:19.279Z,13.13
2019-03-28T14:54:48.436Z,10.88
2019-03-28T14:57:17.873Z,9.88
2019-03-28T14:59:47.449Z,7.78
2019-03-28T15:02:16.629Z,14.65
2019-03-28T15:04:45.919Z,11.40
2019-03-28T15:07:15.336Z,11.70
2019-03-28T15:09:44.894Z,9.28
2019-03-28T15:12:14.021Z,9.38
2019-03-28T15:14:43.016Z,7.28
2019-03-28T15:17:12.081Z,8.43
2019-03-28T15:19:40.978Z,8.25
2019-03-28T15:22:09.831Z,9.53
2019-03-28T15:24:38.675Z,11.40
2019-03-28T15:27:07.950Z,8.55
2019-03-28T15:29:37.748Z,10.80
2019-03-28T15:32:07.013Z,10.75
2019-03-28T15:34:36.194Z,8.13
2019-03-28T15:37:05.252Z,7.40
2019-03-28T15:39:34.476Z,9.73
2019-03-28T15:42:04.091Z,8.55
2019-03-28T15:44:33.510Z,9.60
2019-03-28T15:47:02.863Z,9.13
2019-03-28T15:49:32.281Z,8.55
2019-03-28T15:52:03.263Z,11.65
2019-03-28T15:54:32.426Z,8.53
2019-03-28T15:57:01.569Z,8.13
2019-03-28T15:59:31.009Z,9.18
2019-03-28T16:02:00.915Z,8.48
2019-03-28T16:04:30.543Z,11.70
2019-03-28T16:07:00.723Z,9.18
2019-03-28T16:09:30.366Z,11.18
2019-03-28T16:12:02.799Z,11.88
2019-03-28T16:14:32.127Z,11.73
2019-03-28T16:17:03.058Z,11.20
2019-03-28T16:19:32.421Z,12.98
2019-03-28T16:22:04.795Z,13.10
2019-03-28T16:24:34.359Z,11.70
2019-03-28T16:27:04.135Z,11.48
2019-03-28T16:29:33.891Z,12.53
2019-03-28T16:32:03.962Z,14.15
2019-03-28T16:34:33.733Z,13.60
2019-03-28T16:37:03.485Z,30.05
2019-03-28T16:39:32.932Z,28.35
2019-03-28T16:42:03.061Z,21.23
2019-03-28T16:44:32.507Z,14.38
2019-03-28T16:47:02.647Z,12.23
2019-03-28T16:49:32.300Z,10.85
2019-03-28T16:52:02.144Z,11.53
2019-03-28T16:54:32.143Z,13.20
2019-03-28T16:57:02.031Z,11.55
2019-03-28T16:59:31.652Z,11.93
2019-03-28T17:02:01.854Z,12.33
2019-03-28T17:04:31.307Z,15.72
2019-03-28T17:07:00.937Z,15.98
2019-03-28T17:09:31.636Z,15.85
2019-03-28T17:12:01.559Z,13.70
2019-03-28T17:14:31.470Z,13.25
2019-03-28T17:17:01.678Z,12.88
2019-03-28T17:19:31.106Z,11.10
2019-03-28T17:22:00.240Z,14.28
2019-03-28T17:24:30.007Z,12.95
2019-03-28T17:26:59.645Z,11.18
2019-03-28T17:29:28.987Z,11.20
2019-03-28T17:31:58.975Z,15.10
2019-03-28T17:34:34.658Z,11.55
2019-03-28T17:36:59.173Z,12.25
2019-03-28T17:39:28.776Z,12.88
2019-03-28T17:41:58.030Z,12.30
2019-03-28T17:44:27.815Z,11.70
2019-03-28T17:46:57.113Z,14.95
2019-03-28T17:49:26.655Z,17.07
2019-03-28T17:51:56.283Z,20.20
2019-03-28T17:54:26.158Z,20.32
2019-03-28T17:56:55.289Z,15.70
2019-03-28T17:59:25.227Z,16.95
2019-03-28T18:01:55.118Z,17.40
2019-03-28T18:04:25.097Z,18.50
2019-03-28T18:06:54.439Z,14.05
2019-03-28T18:09:24.715Z,17.50
2019-03-28T18:11:54.281Z,19.17
2019-03-28T18:14:23.929Z,21.65
2019-03-28T18:16:54.003Z,20.10
2019-03-28T18:19:23.775Z,19.60
2019-03-28T18:22:03.362Z,20.68
2019-03-28T18:24:24.312Z,14.65
2019-03-28T18:26:54.002Z,19.98
2019-03-28T18:29:23.509Z,17.92
2019-03-28T18:31:53.226Z,18.60
2019-03-28T18:34:22.940Z,18.50
2019-03-28T18:36:54.233Z,19.80
2019-03-28T18:39:24.102Z,21.35
2019-03-28T18:41:56.439Z,20.68
2019-03-28T18:44:25.204Z,27.27
2019-03-28T18:46:54.855Z,16.87
2019-03-28T18:49:24.556Z,22.48
2019-03-28T18:51:54.487Z,22.07
2019-03-28T18:54:23.960Z,24.20
2019-03-28T18:56:53.881Z,25.02
2019-03-28T18:59:23.797Z,24.37
2019-03-28T19:01:54.196Z,26.37
2019-03-28T19:04:24.274Z,19.98
2019-03-28T19:06:57.486Z,20.25
2019-03-28T19:09:26.026Z,21.80
2019-03-28T19:11:56.162Z,24.32
2019-03-28T19:14:25.549Z,24.80
2019-03-28T19:16:55.328Z,25.62
2019-03-28T19:19:38.312Z,26.77
2019-03-28T19:21:57.540Z,24.85
2019-03-28T19:24:27.794Z,25.50
2019-03-28T19:26:57.737Z,31.23
2019-03-28T19:29:29.231Z,25.82
2019-03-28T19:31:59.149Z,31.65
2019-03-28T19:34:28.764Z,25.23
2019-03-28T19:36:58.833Z,28.00
2019-03-28T19:39:29.886Z,26.23
2019-03-28T19:41:59.975Z,40.15
2019-03-28T19:44:30.692Z,35.92
2019-03-28T19:47:00.737Z,31.45
2019-03-28T19:49:30.617Z,36.08
2019-03-28T19:52:00.326Z,37.85
2019-03-28T19:54:30.340Z,34.73
2019-03-28T19:57:00.429Z,36.58
2019-03-28T19:59:30.379Z,35.25
2019-03-28T20:02:00.265Z,42.55
2019-03-28T20:04:30.003Z,44.98
2019-03-28T20:06:59.802Z,42.00
2019-03-28T20:09:29.708Z,38.60
2019-03-28T20:12:03.566Z,40.35
2019-03-28T20:14:33.240Z,34.20
2019-03-28T20:17:02.844Z,36.45
2019-03-28T20:19:32.453Z,37.75
2019-03-28T20:22:02.483Z,38.13
2019-03-28T20:24:32.453Z,39.03
2019-03-28T20:27:02.650Z,38.95
2019-03-28T20:29:33.537Z,33.95
2019-03-28T20:32:03.955Z,36.65
2019-03-28T20:34:33.659Z,36.35
2019-03-28T20:37:03.482Z,48.20
2019-03-28T20:39:33.343Z,40.25
2019-03-28T20:42:03.152Z,36.58
2019-03-28T20:44:32.581Z,36.77
2019-03-28T20:47:02.302Z,38.28
2019-03-28T20:49:31.974Z,50.45
2019-03-28T20:52:01.710Z,51.00
2019-03-28T20:54:31.279Z,48.83
2019-03-28T20:57:01.141Z,41.90
2019-03-28T20:59:30.793Z,40.90
2019-03-28T21:02:00.318Z,46.35
2019-03-28T21:04:31.574Z,42.05
2019-03-28T21:07:01.574Z,36.90
2019-03-28T21:09:31.287Z,39.78
2019-03-28T21:12:01.248Z,39.20
2019-03-28T21:14:31.163Z,37.00
2019-03-28T21:17:01.243Z,41.10
2019-03-28T21:19:31.314Z,42.85
2019-03-28T21:22:01.414Z,45.70
2019-03-28T21:24:31.095Z,44.45
2019-03-28T21:27:00.461Z,46.30
2019-03-28T21:29:30.152Z,45.48
2019-03-28T21:32:00.126Z,49.05
2019-03-28T21:34:29.984Z,43.70
2019-03-28T21:36:59.763Z,43.45
2019-03-28T21:39:29.190Z,53.17
2019-03-28T21:41:58.351Z,37.73
2019-03-28T21:44:28.595Z,39.65
2019-03-28T21:46:58.765Z,47.95
2019-03-28T21:49:30.532Z,37.75
2019-03-28T21:52:00.267Z,41.05
2019-03-28T21:54:30.186Z,46.73
2019-03-28T21:56:59.772Z,40.78
2019-03-28T21:59:28.931Z,44.95
2019-03-28T22:01:58.883Z,47.75
2019-03-28T22:04:28.184Z,44.73
2019-03-28T22:06:57.473Z,46.75
2019-03-28T22:09:26.350Z,44.48
2019-03-28T22:11:55.250Z,46.18
2019-03-28T22:14:24.343Z,45.60
2019-03-28T22:16:53.211Z,41.25
2019-03-28T22:19:22.183Z,42.90
2019-03-28T22:21:50.833Z,43.13
2019-03-28T22:24:19.828Z,48.15
2019-03-28T22:26:48.689Z,42.13
2019-03-28T22:29:18.127Z,46.98
2019-03-28T22:31:48.675Z,43.28
2019-03-28T22:34:18.059Z,48.83
2019-03-28T22:36:57.244Z,42.93
2019-03-28T22:39:17.352Z,48.38
2019-03-28T22:41:46.412Z,70.55
2019-03-28T22:44:15.248Z,58.92
2019-03-28T22:46:44.588Z,48.25
2019-03-28T22:49:13.542Z,49.42
2019-03-28T22:51:42.607Z,46.00
2019-03-28T22:54:11.412Z,41.28
2019-03-28T22:56:40.601Z,43.15
2019-03-28T22:59:09.710Z,58.10
2019-03-28T23:01:39.051Z,51.42
2019-03-28T23:04:08.001Z,47.93
2019-03-28T23:06:37.274Z,43.60
2019-03-28T23:09:06.991Z,53.13
2019-03-28T23:11:36.003Z,43.85
2019-03-28T23:14:05.394Z,44.20
2019-03-28T23:16:34.678Z,47.13
2019-03-28T23:19:03.680Z,43.75
2019-03-28T23:21:32.643Z,43.60
2019-03-28T23:24:01.520Z,45.78
2019-03-28T23:26:30.507Z,38.25
2019-03-28T23:28:59.471Z,45.85
2019-03-28T23:31:28.348Z,49.65
2019-03-28T23:33:57.210Z,50.60
2019-03-28T23:36:26.163Z,46.80
2019-03-28T23:38:54.994Z,39.92
2019-03-28T23:41:23.882Z,44.45
2019-03-28T23:43:53.086Z,44.20
2019-03-28T23:46:22.122Z,45.30
2019-03-28T23:48:51.353Z,42.78
2019-03-28T23:51:20.577Z,45.33
2019-03-28T23:53:49.660Z,47.25
2019-03-28T23:56:18.472Z,50.70
2019-03-28T23:58:47.590Z,46.30
